sensor_id;sensor_type;location;lat;lon;timestamp;temperature;humidity
20337;DHT22;10326;53.660;10.200;2023-04-24T00:01:16;16.60;70.70
20337;DHT22;10326;53.660;10.200;2023-04-24T00:03:46;16.60;70.60
20337;DHT22;10326;53.660;10.200;2023-04-24T00:06:13;16.60;71.00
20337;DHT22;10326;53.660;10.200;2023-04-24T00:08:42;16.60;70.90
20337;DHT22;10326;53.660;10.200;2023-04-24T00:11:09;16.60;71.10
20337;DHT22;10326;53.660;10.200;2023-04-24T00:13:37;16.60;71.20
20337;DHT22;10326;53.660;10.200;2023-04-24T00:16:04;16.50;71.60
20337;DHT22;10326;53.660;10.200;2023-04-24T00:18:31;16.50;71.60
20337;DHT22;10326;53.660;10.200;2023-04-24T00:21:00;16.50;71.70
20337;DHT22;10326;53.660;10.200;2023-04-24T00:23:28;16.50;72.10
20337;DHT22;10326;53.660;10.200;2023-04-24T00:25:55;16.50;72.10
20337;DHT22;10326;53.660;10.200;2023-04-24T00:28:22;16.50;72.10
20337;DHT22;10326;53.660;10.200;2023-04-24T00:30:49;16.50;72.10
20337;DHT22;10326;53.660;10.200;2023-04-24T00:33:16;16.40;72.10
20337;DHT22;10326;53.660;10.200;2023-04-24T00:35:43;16.50;72.40
20337;DHT22;10326;53.660;10.200;2023-04-24T00:38:11;16.40;72.40
20337;DHT22;10326;53.660;10.200;2023-04-24T00:40:38;16.40;72.40
20337;DHT22;10326;53.660;10.200;2023-04-24T00:43:06;16.40;72.50
20337;DHT22;10326;53.660;10.200;2023-04-24T00:45:33;16.30;72.50
20337;DHT22;10326;53.660;10.200;2023-04-24T00:48:00;16.30;72.60
20337;DHT22;10326;53.660;10.200;2023-04-24T00:50:28;16.30;72.70
20337;DHT22;10326;53.660;10.200;2023-04-24T00:52:56;16.30;72.90
20337;DHT22;10326;53.660;10.200;2023-04-24T00:55:24;16.30;72.80
20337;DHT22;10326;53.660;10.200;2023-04-24T00:57:52;16.30;73.00
20337;DHT22;10326;53.660;10.200;2023-04-24T01:00:20;16.30;72.90
20337;DHT22;10326;53.660;10.200;2023-04-24T01:02:48;16.20;73.00
20337;DHT22;10326;53.660;10.200;2023-04-24T01:05:17;16.20;72.90
20337;DHT22;10326;53.660;10.200;2023-04-24T01:07:45;16.20;73.00
20337;DHT22;10326;53.660;10.200;2023-04-24T01:10:15;16.20;73.20
20337;DHT22;10326;53.660;10.200;2023-04-24T01:12:46;16.20;73.20
20337;DHT22;10326;53.660;10.200;2023-04-24T01:15:13;16.20;73.40
20337;DHT22;10326;53.660;10.200;2023-04-24T01:17:41;16.10;73.30
20337;DHT22;10326;53.660;10.200;2023-04-24T01:20:09;16.10;73.50
20337;DHT22;10326;53.660;10.200;2023-04-24T01:22:38;16.10;73.70
20337;DHT22;10326;53.660;10.200;2023-04-24T01:25:06;16.10;73.90
20337;DHT22;10326;53.660;10.200;2023-04-24T01:27:34;16.10;74.00
20337;DHT22;10326;53.660;10.200;2023-04-24T01:30:01;16.10;74.10
20337;DHT22;10326;53.660;10.200;2023-04-24T01:32:29;16.10;74.10
20337;DHT22;10326;53.660;10.200;2023-04-24T01:34:56;16.10;74.10
20337;DHT22;10326;53.660;10.200;2023-04-24T01:37:24;16.10;74.20
20337;DHT22;10326;53.660;10.200;2023-04-24T01:39:56;16.10;74.20
20337;DHT22;10326;53.660;10.200;2023-04-24T01:42:25;16.10;74.30
20337;DHT22;10326;53.660;10.200;2023-04-24T01:44:52;16.10;74.00
20337;DHT22;10326;53.660;10.200;2023-04-24T01:47:20;16.10;74.10
20337;DHT22;10326;53.660;10.200;2023-04-24T01:49:48;16.10;73.90
20337;DHT22;10326;53.660;10.200;2023-04-24T01:52:15;16.10;74.00
20337;DHT22;10326;53.660;10.200;2023-04-24T01:54:43;16.10;74.00
20337;DHT22;10326;53.660;10.200;2023-04-24T01:57:11;16.10;74.10
20337;DHT22;10326;53.660;10.200;2023-04-24T01:59:38;16.10;74.80
20337;DHT22;10326;53.660;10.200;2023-04-24T02:02:05;16.00;74.00
20337;DHT22;10326;53.660;10.200;2023-04-24T02:04:33;16.00;74.10
20337;DHT22;10326;53.660;10.200;2023-04-24T02:07:00;16.00;74.10
20337;DHT22;10326;53.660;10.200;2023-04-24T02:09:27;16.00;73.90
20337;DHT22;10326;53.660;10.200;2023-04-24T02:11:54;16.00;73.90
20337;DHT22;10326;53.660;10.200;2023-04-24T02:14:25;16.00;73.80
20337;DHT22;10326;53.660;10.200;2023-04-24T02:16:51;16.00;73.90
20337;DHT22;10326;53.660;10.200;2023-04-24T02:19:19;16.00;73.80
20337;DHT22;10326;53.660;10.200;2023-04-24T02:21:46;16.00;74.20
20337;DHT22;10326;53.660;10.200;2023-04-24T02:24:13;15.90;73.60
20337;DHT22;10326;53.660;10.200;2023-04-24T02:26:41;16.00;73.70
20337;DHT22;10326;53.660;10.200;2023-04-24T02:29:08;15.90;73.60
20337;DHT22;10326;53.660;10.200;2023-04-24T02:31:36;15.90;73.70
20337;DHT22;10326;53.660;10.200;2023-04-24T02:34:03;15.90;73.80
20337;DHT22;10326;53.660;10.200;2023-04-24T02:36:31;15.80;73.70
20337;DHT22;10326;53.660;10.200;2023-04-24T02:38:58;15.80;73.80
20337;DHT22;10326;53.660;10.200;2023-04-24T02:41:25;15.80;73.90
20337;DHT22;10326;53.660;10.200;2023-04-24T02:43:56;15.80;73.90
20337;DHT22;10326;53.660;10.200;2023-04-24T02:46:23;15.80;73.90
20337;DHT22;10326;53.660;10.200;2023-04-24T02:48:52;15.80;73.90
20337;DHT22;10326;53.660;10.200;2023-04-24T02:51:19;15.70;73.80
20337;DHT22;10326;53.660;10.200;2023-04-24T02:53:46;15.70;73.70
20337;DHT22;10326;53.660;10.200;2023-04-24T02:56:13;15.70;73.60
20337;DHT22;10326;53.660;10.200;2023-04-24T02:58:40;15.70;73.70
20337;DHT22;10326;53.660;10.200;2023-04-24T03:01:08;15.70;73.70
20337;DHT22;10326;53.660;10.200;2023-04-24T03:03:36;15.60;73.60
20337;DHT22;10326;53.660;10.200;2023-04-24T03:06:05;15.70;73.70
20337;DHT22;10326;53.660;10.200;2023-04-24T03:08:33;15.60;73.60
20337;DHT22;10326;53.660;10.200;2023-04-24T03:11:00;15.50;73.40
20337;DHT22;10326;53.660;10.200;2023-04-24T03:13:27;15.50;73.40
20337;DHT22;10326;53.660;10.200;2023-04-24T03:15:54;15.50;73.30
20337;DHT22;10326;53.660;10.200;2023-04-24T03:18:21;15.50;73.30
20337;DHT22;10326;53.660;10.200;2023-04-24T03:20:50;15.40;73.20
20337;DHT22;10326;53.660;10.200;2023-04-24T03:23:19;15.40;73.20
20337;DHT22;10326;53.660;10.200;2023-04-24T03:25:45;15.40;73.30
20337;DHT22;10326;53.660;10.200;2023-04-24T03:28:14;15.40;73.80
20337;DHT22;10326;53.660;10.200;2023-04-24T03:30:44;15.30;73.20
20337;DHT22;10326;53.660;10.200;2023-04-24T03:33:13;15.30;73.30
20337;DHT22;10326;53.660;10.200;2023-04-24T03:35:48;15.30;73.30
20337;DHT22;10326;53.660;10.200;2023-04-24T03:38:16;15.20;73.20
20337;DHT22;10326;53.660;10.200;2023-04-24T03:40:44;15.20;73.10
20337;DHT22;10326;53.660;10.200;2023-04-24T03:43:32;15.20;73.10
20337;DHT22;10326;53.660;10.200;2023-04-24T03:46:01;15.10;73.00
20337;DHT22;10326;53.660;10.200;2023-04-24T03:48:30;15.10;73.00
20337;DHT22;10326;53.660;10.200;2023-04-24T03:50:58;15.10;73.00
20337;DHT22;10326;53.660;10.200;2023-04-24T03:53:25;15.10;73.00
20337;DHT22;10326;53.660;10.200;2023-04-24T03:55:55;15.10;73.10
20337;DHT22;10326;53.660;10.200;2023-04-24T03:58:23;15.00;73.00
20337;DHT22;10326;53.660;10.200;2023-04-24T04:00:51;15.00;72.90
20337;DHT22;10326;53.660;10.200;2023-04-24T04:03:37;15.00;72.90
20337;DHT22;10326;53.660;10.200;2023-04-24T04:06:04;15.00;72.90
20337;DHT22;10326;53.660;10.200;2023-04-24T04:08:32;14.90;72.90
20337;DHT22;10326;53.660;10.200;2023-04-24T04:11:00;14.90;72.80
20337;DHT22;10326;53.660;10.200;2023-04-24T04:13:28;14.90;72.80
20337;DHT22;10326;53.660;10.200;2023-04-24T04:15:55;14.80;72.70
20337;DHT22;10326;53.660;10.200;2023-04-24T04:18:23;14.80;73.40
20337;DHT22;10326;53.660;10.200;2023-04-24T04:20:50;14.80;72.80
20337;DHT22;10326;53.660;10.200;2023-04-24T04:23:17;14.80;72.80
20337;DHT22;10326;53.660;10.200;2023-04-24T04:25:54;14.80;72.80
20337;DHT22;10326;53.660;10.200;2023-04-24T04:28:27;14.70;72.70
20337;DHT22;10326;53.660;10.200;2023-04-24T04:30:56;14.70;72.70
20337;DHT22;10326;53.660;10.200;2023-04-24T04:33:23;14.80;72.80
20337;DHT22;10326;53.660;10.200;2023-04-24T04:35:52;14.70;72.70
20337;DHT22;10326;53.660;10.200;2023-04-24T04:38:20;14.70;72.80
20337;DHT22;10326;53.660;10.200;2023-04-24T04:41:01;14.70;72.70
20337;DHT22;10326;53.660;10.200;2023-04-24T04:43:32;14.70;72.70
20337;DHT22;10326;53.660;10.200;2023-04-24T04:46:00;14.60;72.60
20337;DHT22;10326;53.660;10.200;2023-04-24T04:48:51;14.60;72.60
20337;DHT22;10326;53.660;10.200;2023-04-24T04:51:18;14.60;72.50
20337;DHT22;10326;53.660;10.200;2023-04-24T04:53:46;14.60;72.40
20337;DHT22;10326;53.660;10.200;2023-04-24T04:56:13;14.60;72.30
20337;DHT22;10326;53.660;10.200;2023-04-24T04:58:43;14.50;72.20
20337;DHT22;10326;53.660;10.200;2023-04-24T05:01:13;14.60;72.30
20337;DHT22;10326;53.660;10.200;2023-04-24T05:03:44;14.50;72.30
20337;DHT22;10326;53.660;10.200;2023-04-24T05:06:14;14.50;72.10
20337;DHT22;10326;53.660;10.200;2023-04-24T05:08:42;14.50;72.30
20337;DHT22;10326;53.660;10.200;2023-04-24T05:11:18;14.50;72.30
20337;DHT22;10326;53.660;10.200;2023-04-24T05:13:47;14.50;72.10
20337;DHT22;10326;53.660;10.200;2023-04-24T05:16:18;14.50;72.00
20337;DHT22;10326;53.660;10.200;2023-04-24T05:18:47;14.50;72.00
20337;DHT22;10326;53.660;10.200;2023-04-24T05:21:17;14.50;72.00
20337;DHT22;10326;53.660;10.200;2023-04-24T05:23:48;14.50;71.90
20337;DHT22;10326;53.660;10.200;2023-04-24T05:26:23;14.50;71.90
20337;DHT22;10326;53.660;10.200;2023-04-24T05:28:52;14.50;71.70
20337;DHT22;10326;53.660;10.200;2023-04-24T05:31:18;14.50;71.90
20337;DHT22;10326;53.660;10.200;2023-04-24T05:33:46;14.50;72.00
20337;DHT22;10326;53.660;10.200;2023-04-24T05:36:13;14.50;71.70
20337;DHT22;10326;53.660;10.200;2023-04-24T05:38:41;14.50;71.90
20337;DHT22;10326;53.660;10.200;2023-04-24T05:41:08;14.50;72.20
20337;DHT22;10326;53.660;10.200;2023-04-24T05:43:35;14.50;72.10
20337;DHT22;10326;53.660;10.200;2023-04-24T05:46:04;14.50;72.00
20337;DHT22;10326;53.660;10.200;2023-04-24T05:48:31;14.60;72.20
20337;DHT22;10326;53.660;10.200;2023-04-24T05:51:00;14.60;72.00
20337;DHT22;10326;53.660;10.200;2023-04-24T05:53:28;14.60;71.80
20337;DHT22;10326;53.660;10.200;2023-04-24T05:55:55;14.60;71.60
20337;DHT22;10326;53.660;10.200;2023-04-24T05:58:22;14.70;71.50
20337;DHT22;10326;53.660;10.200;2023-04-24T06:00:50;14.70;71.60
20337;DHT22;10326;53.660;10.200;2023-04-24T06:03:18;14.70;71.60
20337;DHT22;10326;53.660;10.200;2023-04-24T06:05:49;14.70;71.60
20337;DHT22;10326;53.660;10.200;2023-04-24T06:08:16;14.70;71.60
20337;DHT22;10326;53.660;10.200;2023-04-24T06:10:45;14.70;71.30
20337;DHT22;10326;53.660;10.200;2023-04-24T06:13:12;14.80;71.40
20337;DHT22;10326;53.660;10.200;2023-04-24T06:15:47;14.80;71.40
20337;DHT22;10326;53.660;10.200;2023-04-24T06:18:26;14.80;71.60
20337;DHT22;10326;53.660;10.200;2023-04-24T06:20:53;14.80;71.50
20337;DHT22;10326;53.660;10.200;2023-04-24T06:23:21;14.90;71.00
20337;DHT22;10326;53.660;10.200;2023-04-24T06:25:48;14.80;70.70
20337;DHT22;10326;53.660;10.200;2023-04-24T06:28:15;14.90;70.60
20337;DHT22;10326;53.660;10.200;2023-04-24T06:30:42;14.90;70.50
20337;DHT22;10326;53.660;10.200;2023-04-24T06:33:11;14.90;70.70
20337;DHT22;10326;53.660;10.200;2023-04-24T06:35:39;14.90;70.60
20337;DHT22;10326;53.660;10.200;2023-04-24T06:38:06;14.90;70.20
20337;DHT22;10326;53.660;10.200;2023-04-24T06:40:33;14.90;70.30
20337;DHT22;10326;53.660;10.200;2023-04-24T06:43:00;15.00;70.60
20337;DHT22;10326;53.660;10.200;2023-04-24T06:45:28;15.00;70.50
20337;DHT22;10326;53.660;10.200;2023-04-24T06:47:56;14.90;70.50
20337;DHT22;10326;53.660;10.200;2023-04-24T06:50:24;15.00;70.60
20337;DHT22;10326;53.660;10.200;2023-04-24T06:52:52;15.00;70.40
20337;DHT22;10326;53.660;10.200;2023-04-24T06:55:19;15.00;70.50
20337;DHT22;10326;53.660;10.200;2023-04-24T06:57:46;15.10;70.50
20337;DHT22;10326;53.660;10.200;2023-04-24T07:00:14;15.10;70.60
20337;DHT22;10326;53.660;10.200;2023-04-24T07:02:42;15.10;70.50
20337;DHT22;10326;53.660;10.200;2023-04-24T07:05:09;15.20;70.10
20337;DHT22;10326;53.660;10.200;2023-04-24T07:07:36;15.20;70.00
20337;DHT22;10326;53.660;10.200;2023-04-24T07:10:08;15.30;70.20
20337;DHT22;10326;53.660;10.200;2023-04-24T07:12:36;15.30;70.00
20337;DHT22;10326;53.660;10.200;2023-04-24T07:15:04;15.40;70.00
20337;DHT22;10326;53.660;10.200;2023-04-24T07:17:31;15.40;69.90
20337;DHT22;10326;53.660;10.200;2023-04-24T07:19:58;15.50;70.60
20337;DHT22;10326;53.660;10.200;2023-04-24T07:22:25;15.50;69.90
20337;DHT22;10326;53.660;10.200;2023-04-24T07:24:52;15.60;69.60
20337;DHT22;10326;53.660;10.200;2023-04-24T07:27:21;15.70;69.60
20337;DHT22;10326;53.660;10.200;2023-04-24T07:29:48;15.70;69.80
20337;DHT22;10326;53.660;10.200;2023-04-24T07:32:15;15.70;69.70
20337;DHT22;10326;53.660;10.200;2023-04-24T07:34:42;15.70;69.50
20337;DHT22;10326;53.660;10.200;2023-04-24T07:37:09;15.80;69.40
20337;DHT22;10326;53.660;10.200;2023-04-24T07:39:36;15.80;69.40
20337;DHT22;10326;53.660;10.200;2023-04-24T07:42:03;15.80;69.40
20337;DHT22;10326;53.660;10.200;2023-04-24T07:44:32;15.90;69.40
20337;DHT22;10326;53.660;10.200;2023-04-24T07:46:59;16.00;69.10
20337;DHT22;10326;53.660;10.200;2023-04-24T07:49:26;16.00;68.80
20337;DHT22;10326;53.660;10.200;2023-04-24T07:51:53;16.00;68.80
20337;DHT22;10326;53.660;10.200;2023-04-24T07:54:20;16.10;68.80
20337;DHT22;10326;53.660;10.200;2023-04-24T07:56:47;16.10;68.80
20337;DHT22;10326;53.660;10.200;2023-04-24T07:59:14;16.10;68.70
20337;DHT22;10326;53.660;10.200;2023-04-24T08:01:43;16.20;68.50
20337;DHT22;10326;53.660;10.200;2023-04-24T08:04:10;16.20;68.20
20337;DHT22;10326;53.660;10.200;2023-04-24T08:06:37;16.20;67.90
20337;DHT22;10326;53.660;10.200;2023-04-24T08:09:04;16.20;68.10
20337;DHT22;10326;53.660;10.200;2023-04-24T08:11:31;16.30;68.30
20337;DHT22;10326;53.660;10.200;2023-04-24T08:13:58;16.30;68.20
20337;DHT22;10326;53.660;10.200;2023-04-24T08:16:25;16.30;68.00
20337;DHT22;10326;53.660;10.200;2023-04-24T08:18:53;16.30;67.80
20337;DHT22;10326;53.660;10.200;2023-04-24T08:21:20;16.30;67.50
20337;DHT22;10326;53.660;10.200;2023-04-24T08:23:47;16.40;67.30
20337;DHT22;10326;53.660;10.200;2023-04-24T08:26:14;16.40;67.10
20337;DHT22;10326;53.660;10.200;2023-04-24T08:28:42;16.40;66.80
20337;DHT22;10326;53.660;10.200;2023-04-24T08:31:09;16.40;66.90
20337;DHT22;10326;53.660;10.200;2023-04-24T08:33:36;16.40;66.80
20337;DHT22;10326;53.660;10.200;2023-04-24T08:36:05;16.30;66.60
20337;DHT22;10326;53.660;10.200;2023-04-24T08:38:33;16.30;66.50
20337;DHT22;10326;53.660;10.200;2023-04-24T08:41:01;16.30;66.60
20337;DHT22;10326;53.660;10.200;2023-04-24T08:43:28;16.30;66.50
20337;DHT22;10326;53.660;10.200;2023-04-24T08:45:56;16.30;66.40
20337;DHT22;10326;53.660;10.200;2023-04-24T08:48:23;16.30;66.30
20337;DHT22;10326;53.660;10.200;2023-04-24T08:50:50;16.30;66.40
20337;DHT22;10326;53.660;10.200;2023-04-24T08:53:19;16.30;66.40
20337;DHT22;10326;53.660;10.200;2023-04-24T08:55:47;16.30;66.60
20337;DHT22;10326;53.660;10.200;2023-04-24T08:58:16;16.30;66.20
20337;DHT22;10326;53.660;10.200;2023-04-24T09:00:44;16.30;66.30
20337;DHT22;10326;53.660;10.200;2023-04-24T09:03:13;16.30;66.40
20337;DHT22;10326;53.660;10.200;2023-04-24T09:05:42;16.30;66.50
20337;DHT22;10326;53.660;10.200;2023-04-24T09:08:13;16.40;66.30
20337;DHT22;10326;53.660;10.200;2023-04-24T09:10:42;16.40;66.30
20337;DHT22;10326;53.660;10.200;2023-04-24T09:13:09;16.40;65.90
20337;DHT22;10326;53.660;10.200;2023-04-24T09:15:39;16.40;65.80
20337;DHT22;10326;53.660;10.200;2023-04-24T09:18:06;16.40;65.50
20337;DHT22;10326;53.660;10.200;2023-04-24T09:20:34;16.50;65.10
20337;DHT22;10326;53.660;10.200;2023-04-24T09:23:01;16.40;65.80
20337;DHT22;10326;53.660;10.200;2023-04-24T09:25:31;16.50;65.80
20337;DHT22;10326;53.660;10.200;2023-04-24T09:28:02;16.50;65.60
20337;DHT22;10326;53.660;10.200;2023-04-24T09:30:31;16.60;65.00
20337;DHT22;10326;53.660;10.200;2023-04-24T09:33:12;16.60;65.20
20337;DHT22;10326;53.660;10.200;2023-04-24T09:35:41;16.60;64.70
20337;DHT22;10326;53.660;10.200;2023-04-24T09:38:09;16.60;65.20
20337;DHT22;10326;53.660;10.200;2023-04-24T09:40:36;16.60;64.90
20337;DHT22;10326;53.660;10.200;2023-04-24T09:43:11;16.60;64.60
20337;DHT22;10326;53.660;10.200;2023-04-24T09:45:38;16.60;64.00
20337;DHT22;10326;53.660;10.200;2023-04-24T09:48:09;16.60;64.10
20337;DHT22;10326;53.660;10.200;2023-04-24T09:50:36;16.60;63.80
20337;DHT22;10326;53.660;10.200;2023-04-24T09:53:05;16.50;64.00
20337;DHT22;10326;53.660;10.200;2023-04-24T09:55:39;16.50;64.30
20337;DHT22;10326;53.660;10.200;2023-04-24T09:58:08;16.50;64.40
20337;DHT22;10326;53.660;10.200;2023-04-24T10:00:35;16.50;64.50
20337;DHT22;10326;53.660;10.200;2023-04-24T10:03:04;16.40;64.70
20337;DHT22;10326;53.660;10.200;2023-04-24T10:05:33;16.50;64.40
20337;DHT22;10326;53.660;10.200;2023-04-24T10:08:02;16.50;64.60
20337;DHT22;10326;53.660;10.200;2023-04-24T10:10:30;16.50;65.10
20337;DHT22;10326;53.660;10.200;2023-04-24T10:12:59;16.50;64.30
20337;DHT22;10326;53.660;10.200;2023-04-24T10:15:27;16.50;64.20
20337;DHT22;10326;53.660;10.200;2023-04-24T10:17:55;16.50;64.00
20337;DHT22;10326;53.660;10.200;2023-04-24T10:20:26;16.50;63.70
20337;DHT22;10326;53.660;10.200;2023-04-24T10:22:55;16.50;64.00
20337;DHT22;10326;53.660;10.200;2023-04-24T10:25:25;16.50;64.30
20337;DHT22;10326;53.660;10.200;2023-04-24T10:27:53;16.50;64.40
20337;DHT22;10326;53.660;10.200;2023-04-24T10:30:23;16.50;64.10
20337;DHT22;10326;53.660;10.200;2023-04-24T10:32:51;16.50;64.30
20337;DHT22;10326;53.660;10.200;2023-04-24T10:35:19;16.60;64.00
20337;DHT22;10326;53.660;10.200;2023-04-24T10:37:50;16.60;63.90
20337;DHT22;10326;53.660;10.200;2023-04-24T10:40:19;16.60;63.90
20337;DHT22;10326;53.660;10.200;2023-04-24T10:42:51;16.60;64.00
20337;DHT22;10326;53.660;10.200;2023-04-24T10:45:20;16.60;64.10
20337;DHT22;10326;53.660;10.200;2023-04-24T10:47:53;16.60;63.40
20337;DHT22;10326;53.660;10.200;2023-04-24T10:50:26;16.50;63.00
20337;DHT22;10326;53.660;10.200;2023-04-24T10:53:05;16.50;63.40
20337;DHT22;10326;53.660;10.200;2023-04-24T10:55:41;16.50;63.40
20337;DHT22;10326;53.660;10.200;2023-04-24T10:58:09;16.50;63.80
20337;DHT22;10326;53.660;10.200;2023-04-24T11:00:38;16.50;64.10
20337;DHT22;10326;53.660;10.200;2023-04-24T11:03:12;16.50;64.30
20337;DHT22;10326;53.660;10.200;2023-04-24T11:05:56;16.50;63.80
20337;DHT22;10326;53.660;10.200;2023-04-24T11:08:29;16.50;63.80
20337;DHT22;10326;53.660;10.200;2023-04-24T11:11:02;16.50;63.60
20337;DHT22;10326;53.660;10.200;2023-04-24T11:14:05;16.50;63.30
20337;DHT22;10326;53.660;10.200;2023-04-24T11:16:40;16.50;63.30
20337;DHT22;10326;53.660;10.200;2023-04-24T11:19:20;16.40;63.20
20337;DHT22;10326;53.660;10.200;2023-04-24T11:21:55;16.30;63.20
20337;DHT22;10326;53.660;10.200;2023-04-24T11:24:27;16.30;63.40
20337;DHT22;10326;53.660;10.200;2023-04-24T11:26:58;16.30;63.40
20337;DHT22;10326;53.660;10.200;2023-04-24T11:29:44;16.30;63.40
20337;DHT22;10326;53.660;10.200;2023-04-24T11:32:24;16.40;63.60
20337;DHT22;10326;53.660;10.200;2023-04-24T11:34:54;16.40;63.00
20337;DHT22;10326;53.660;10.200;2023-04-24T11:37:23;16.50;63.00
20337;DHT22;10326;53.660;10.200;2023-04-24T11:39:52;16.50;63.40
20337;DHT22;10326;53.660;10.200;2023-04-24T11:42:20;16.50;63.20
20337;DHT22;10326;53.660;10.200;2023-04-24T11:44:49;16.60;63.50
20337;DHT22;10326;53.660;10.200;2023-04-24T11:47:16;16.70;63.20
20337;DHT22;10326;53.660;10.200;2023-04-24T11:49:43;16.70;63.20
20337;DHT22;10326;53.660;10.200;2023-04-24T11:52:15;16.80;62.60
20337;DHT22;10326;53.660;10.200;2023-04-24T11:54:47;16.80;62.10
20337;DHT22;10326;53.660;10.200;2023-04-24T11:57:15;16.80;62.20
20337;DHT22;10326;53.660;10.200;2023-04-24T11:59:42;16.80;61.90
20337;DHT22;10326;53.660;10.200;2023-04-24T12:02:09;16.70;61.70
20337;DHT22;10326;53.660;10.200;2023-04-24T12:04:46;16.70;61.50
20337;DHT22;10326;53.660;10.200;2023-04-24T12:07:15;16.70;61.70
20337;DHT22;10326;53.660;10.200;2023-04-24T12:09:43;16.70;61.70
20337;DHT22;10326;53.660;10.200;2023-04-24T12:12:12;16.70;61.70
20337;DHT22;10326;53.660;10.200;2023-04-24T12:14:52;16.80;61.40
20337;DHT22;10326;53.660;10.200;2023-04-24T12:17:24;16.80;60.70
20337;DHT22;10326;53.660;10.200;2023-04-24T12:19:52;16.80;60.80
20337;DHT22;10326;53.660;10.200;2023-04-24T12:22:20;16.80;61.20
20337;DHT22;10326;53.660;10.200;2023-04-24T12:25:00;16.80;61.30
20337;DHT22;10326;53.660;10.200;2023-04-24T12:27:30;16.80;61.40
20337;DHT22;10326;53.660;10.200;2023-04-24T12:29:59;16.90;60.50
20337;DHT22;10326;53.660;10.200;2023-04-24T12:32:28;17.00;60.20
20337;DHT22;10326;53.660;10.200;2023-04-24T12:34:56;17.00;60.30
20337;DHT22;10326;53.660;10.200;2023-04-24T12:37:25;17.00;60.40
20337;DHT22;10326;53.660;10.200;2023-04-24T12:40:00;17.10;60.60
20337;DHT22;10326;53.660;10.200;2023-04-24T12:42:29;17.20;60.70
20337;DHT22;10326;53.660;10.200;2023-04-24T12:44:57;17.30;60.50
20337;DHT22;10326;53.660;10.200;2023-04-24T12:47:26;17.30;60.10
20337;DHT22;10326;53.660;10.200;2023-04-24T12:49:54;17.40;59.90
20337;DHT22;10326;53.660;10.200;2023-04-24T12:52:21;17.50;59.70
20337;DHT22;10326;53.660;10.200;2023-04-24T12:54:52;17.40;59.40
20337;DHT22;10326;53.660;10.200;2023-04-24T12:57:20;17.40;59.20
20337;DHT22;10326;53.660;10.200;2023-04-24T12:59:47;17.40;59.00
20337;DHT22;10326;53.660;10.200;2023-04-24T13:02:14;17.40;59.00
20337;DHT22;10326;53.660;10.200;2023-04-24T13:04:44;17.30;58.70
20337;DHT22;10326;53.660;10.200;2023-04-24T13:07:12;17.30;58.70
20337;DHT22;10326;53.660;10.200;2023-04-24T13:09:39;17.20;58.70
20337;DHT22;10326;53.660;10.200;2023-04-24T13:12:08;17.20;58.70
20337;DHT22;10326;53.660;10.200;2023-04-24T13:14:36;17.10;58.80
20337;DHT22;10326;53.660;10.200;2023-04-24T13:17:04;17.00;58.90
20337;DHT22;10326;53.660;10.200;2023-04-24T13:19:35;16.90;58.80
20337;DHT22;10326;53.660;10.200;2023-04-24T13:22:03;16.90;58.80
20337;DHT22;10326;53.660;10.200;2023-04-24T13:24:31;16.80;58.90
20337;DHT22;10326;53.660;10.200;2023-04-24T13:26:58;16.70;58.70
20337;DHT22;10326;53.660;10.200;2023-04-24T13:29:27;16.70;58.80
20337;DHT22;10326;53.660;10.200;2023-04-24T13:31:55;16.60;58.80
20337;DHT22;10326;53.660;10.200;2023-04-24T13:34:22;16.50;59.00
20337;DHT22;10326;53.660;10.200;2023-04-24T13:36:50;16.50;59.40
20337;DHT22;10326;53.660;10.200;2023-04-24T13:39:17;16.50;59.60
20337;DHT22;10326;53.660;10.200;2023-04-24T13:41:44;16.30;59.90
20337;DHT22;10326;53.660;10.200;2023-04-24T13:44:13;16.30;60.10
20337;DHT22;10326;53.660;10.200;2023-04-24T13:46:42;16.20;60.50
20337;DHT22;10326;53.660;10.200;2023-04-24T13:49:10;16.10;60.80
20337;DHT22;10326;53.660;10.200;2023-04-24T13:51:38;16.00;60.90
20337;DHT22;10326;53.660;10.200;2023-04-24T13:54:05;16.00;61.10
20337;DHT22;10326;53.660;10.200;2023-04-24T13:56:32;15.90;61.10
20337;DHT22;10326;53.660;10.200;2023-04-24T13:59:00;15.80;61.30
20337;DHT22;10326;53.660;10.200;2023-04-24T14:01:27;15.80;61.50
20337;DHT22;10326;53.660;10.200;2023-04-24T14:03:56;15.70;61.50
20337;DHT22;10326;53.660;10.200;2023-04-24T14:06:23;15.70;61.90
20337;DHT22;10326;53.660;10.200;2023-04-24T14:08:50;15.70;62.10
20337;DHT22;10326;53.660;10.200;2023-04-24T14:11:17;15.70;62.10
20337;DHT22;10326;53.660;10.200;2023-04-24T14:13:45;15.70;62.00
20337;DHT22;10326;53.660;10.200;2023-04-24T14:16:12;15.70;61.90
20337;DHT22;10326;53.660;10.200;2023-04-24T14:18:40;15.80;61.70
20337;DHT22;10326;53.660;10.200;2023-04-24T14:21:08;15.80;61.60
20337;DHT22;10326;53.660;10.200;2023-04-24T14:23:35;15.80;61.40
20337;DHT22;10326;53.660;10.200;2023-04-24T14:26:02;15.80;61.30
20337;DHT22;10326;53.660;10.200;2023-04-24T14:28:29;15.70;61.40
20337;DHT22;10326;53.660;10.200;2023-04-24T14:30:56;15.70;61.40
20337;DHT22;10326;53.660;10.200;2023-04-24T14:33:23;15.70;61.40
20337;DHT22;10326;53.660;10.200;2023-04-24T14:35:50;15.70;61.60
20337;DHT22;10326;53.660;10.200;2023-04-24T14:38:18;15.70;61.80
20337;DHT22;10326;53.660;10.200;2023-04-24T14:40:45;15.60;62.10
20337;DHT22;10326;53.660;10.200;2023-04-24T14:43:12;15.60;62.30
20337;DHT22;10326;53.660;10.200;2023-04-24T14:45:39;15.60;62.70
20337;DHT22;10326;53.660;10.200;2023-04-24T14:48:07;15.60;62.60
20337;DHT22;10326;53.660;10.200;2023-04-24T14:50:34;15.60;62.70
20337;DHT22;10326;53.660;10.200;2023-04-24T14:53:01;15.60;62.70
20337;DHT22;10326;53.660;10.200;2023-04-24T14:55:31;15.70;62.90
20337;DHT22;10326;53.660;10.200;2023-04-24T14:57:59;15.70;62.70
20337;DHT22;10326;53.660;10.200;2023-04-24T15:00:26;15.70;62.80
20337;DHT22;10326;53.660;10.200;2023-04-24T15:02:54;15.70;62.60
20337;DHT22;10326;53.660;10.200;2023-04-24T15:05:21;15.70;62.40
20337;DHT22;10326;53.660;10.200;2023-04-24T15:07:49;15.70;62.60
20337;DHT22;10326;53.660;10.200;2023-04-24T15:10:17;15.70;62.00
20337;DHT22;10326;53.660;10.200;2023-04-24T15:12:45;15.60;62.70
20337;DHT22;10326;53.660;10.200;2023-04-24T15:15:12;15.50;63.40
20337;DHT22;10326;53.660;10.200;2023-04-24T15:17:39;15.50;63.90
20337;DHT22;10326;53.660;10.200;2023-04-24T15:20:07;15.40;64.20
20337;DHT22;10326;53.660;10.200;2023-04-24T15:22:35;15.30;64.80
20337;DHT22;10326;53.660;10.200;2023-04-24T15:25:02;15.20;65.00